Time;durP1;ratioP1;P1;durP2;ratioP2;P2;SDS_P1;SDS_P2;PMS_P1;PMS_P2;Temp;Humidity;BMP_temperature;BMP_pressure;BME280_temperature;BME280_humidity;BME280_pressure;Samples;Min_cycle;Max_cycle;Signal;HPM_P1;HPM_P2
2022/11/08 00:01:59;;;;;;;115.70;88.30;;;;;;;2.81;100.00;99236.59;106331;1278;69994;-72
2022/11/08 00:04:26;;;;;;;;;;;;;;;2.79;100.00;99233.50;106037;1291;64261;-72
2022/11/08 00:15:09;;;;;;;123.40;95.10;;;;;;;2.75;100.00;99239.43;106321;1285;60131;-72
2022/11/08 00:17:37;;;;;;;121.10;91.50;;;;;;;2.75;100.00;99237.67;106332;1286;73619;-73
2022/11/08 00:20:05;;;;;;;118.40;87.90;;;;;;;2.76;100.00;99238.86;106353;1285;58915;-72
2022/11/08 00:22:31;;;;;;;115.50;86.50;;;;;;;2.77;100.00;99237.27;106342;1285;61557;-73
2022/11/08 00:24:58;;;;;;;117.70;86.60;;;;;;;2.76;100.00;99237.09;106341;1285;74451;-72
2022/11/08 00:27:25;;;;;;;112.40;85.50;;;;;;;2.76;100.00;99235.70;106370;1284;68764;-72
2022/11/08 00:29:52;;;;;;;113.80;84.10;;;;;;;2.75;100.00;99235.36;106038;1284;65261;-73
2022/11/08 00:32:21;;;;;;;110.60;84.70;;;;;;;2.74;100.00;99235.77;106328;1285;58789;-72
2022/11/08 00:34:49;;;;;;;110.90;83.50;;;;;;;2.73;100.00;99232.45;106334;1285;58819;-72
2022/11/08 00:37:17;;;;;;;106.90;82.70;;;;;;;2.70;100.00;99233.08;106325;1285;67027;-73
2022/11/08 00:39:43;;;;;;;102.60;80.20;;;;;;;2.69;100.00;99234.89;106372;1285;60182;-72
2022/11/08 00:42:10;;;;;;;111.00;84.90;;;;;;;2.67;100.00;99236.53;106345;1279;63832;-72
2022/11/08 00:44:37;;;;;;;118.80;88.40;;;;;;;2.64;100.00;99234.48;106344;1285;58988;-73
2022/11/08 00:47:04;;;;;;;111.70;84.90;;;;;;;2.64;100.00;99237.48;106349;1278;60387;-72
2022/11/08 00:49:30;;;;;;;110.50;84.00;;;;;;;2.63;100.00;99243.13;106351;1282;67113;-73
2022/11/08 00:51:57;;;;;;;121.20;89.90;;;;;;;2.62;100.00;99247.01;106350;1277;69893;-73
2022/11/08 00:54:23;;;;;;;117.00;88.50;;;;;;;2.62;100.00;99250.52;106336;1278;64029;-72
2022/11/08 00:56:50;;;;;;;130.60;99.10;;;;;;;2.62;100.00;99248.58;106246;1288;58977;-71
2022/11/08 00:59:18;;;;;;;147.80;108.90;;;;;;;2.62;100.00;99244.39;106353;1285;58974;-72
2022/11/08 01:01:46;;;;;;;134.20;100.50;;;;;;;2.62;100.00;99246.83;106332;1278;74627;-73
2022/11/08 01:04:16;;;;;;;134.90;102.20;;;;;;;2.61;100.00;99247.73;106361;1278;69901;-74
2022/11/08 01:06:43;;;;;;;149.40;111.40;;;;;;;2.60;100.00;99250.58;106363;1284;64033;-73
2022/11/08 01:09:09;;;;;;;147.90;112.40;;;;;;;2.60;100.00;99244.27;106358;1286;59253;-73
2022/11/08 01:11:38;;;;;;;137.00;104.10;;;;;;;2.60;100.00;99245.50;106111;1280;61328;-73
2022/11/08 01:14:04;;;;;;;138.60;100.10;;;;;;;2.59;100.00;99246.77;106367;1278;67075;-73
2022/11/08 01:16:32;;;;;;;143.90;107.60;;;;;;;2.57;100.00;99244.52;106254;1284;68945;-73
2022/11/08 01:19:00;;;;;;;146.60;108.30;;;;;;;2.57;100.00;99245.75;106085;1289;65393;-73
2022/11/08 01:21:26;;;;;;;140.80;105.80;;;;;;;2.57;100.00;99247.36;106341;1278;58967;-74
2022/11/08 01:23:54;;;;;;;143.90;108.60;;;;;;;2.56;100.00;99245.09;106344;1285;59012;-72
2022/11/08 01:26:23;;;;;;;144.10;105.10;;;;;;;2.56;100.00;99246.13;106358;1278;66906;-73
2022/11/08 01:28:50;;;;;;;138.90;105.00;;;;;;;2.56;100.00;99243.00;106136;1285;61040;-72
2022/11/08 01:31:23;;;;;;;142.30;105.80;;;;;;;2.54;100.00;99247.09;106364;1282;64398;-73
2022/11/08 01:33:50;;;;;;;138.80;103.50;;;;;;;2.52;100.00;99241.89;106340;1293;58980;-73
2022/11/08 01:36:19;;;;;;;132.60;101.90;;;;;;;2.49;100.00;99238.10;106339;1278;59264;-73
2022/11/08 01:38:46;;;;;;;136.60;102.00;;;;;;;2.46;100.00;99240.33;106339;1285;74865;-72
2022/11/08 01:41:14;;;;;;;129.10;96.80;;;;;;;2.43;100.00;99246.35;106340;1278;69950;-74
2022/11/08 01:43:42;;;;;;;127.00;98.70;;;;;;;2.40;100.00;99248.55;106363;1284;64097;-74
2022/11/08 01:46:08;;;;;;;125.40;95.90;;;;;;;2.33;100.00;99241.92;106045;1295;58970;-74
2022/11/08 01:48:38;;;;;;;129.20;97.10;;;;;;;2.27;100.00;99242.09;106040;1282;58917;-73
2022/11/08 01:51:07;;;;;;;126.90;97.30;;;;;;;2.21;100.00;99241.56;106045;1281;74667;-73
2022/11/08 01:53:34;;;;;;;128.20;97.80;;;;;;;2.16;100.00;99237.31;106044;1288;59421;-73
2022/11/08 01:56:01;;;;;;;121.50;93.30;;;;;;;2.14;100.00;99236.00;106047;1288;65222;-72
2022/11/08 01:58:33;;;;;;;124.30;94.30;;;;;;;2.11;100.00;99235.20;106050;1288;58956;-73
2022/11/08 02:01:01;;;;;;;132.20;98.60;;;;;;;2.08;100.00;99234.76;106058;1288;59389;-74
2022/11/08 02:03:31;;;;;;;126.10;97.60;;;;;;;2.06;100.00;99237.29;106061;1288;67253;-74
2022/11/08 02:06:00;;;;;;;137.10;98.90;;;;;;;2.04;100.00;99237.86;106069;1289;67767;-73
2022/11/08 02:08:31;;;;;;;125.80;95.50;;;;;;;2.03;100.00;99237.73;106043;1288;71496;-74
2022/11/08 02:10:57;;;;;;;119.10;94.40;;;;;;;2.02;100.00;99235.45;106051;1289;59350;-74
2022/11/08 02:13:27;;;;;;;122.50;94.30;;;;;;;2.00;100.00;99229.55;106064;1287;58912;-73
2022/11/08 02:15:55;;;;;;;125.80;95.30;;;;;;;1.97;100.00;99228.94;105873;1285;75572;-73
2022/11/08 02:18:27;;;;;;;120.10;95.00;;;;;;;1.96;100.00;99226.67;106308;1278;61047;-74
2022/11/08 02:20:56;;;;;;;115.90;91.00;;;;;;;1.94;100.00;99223.75;106080;1285;72166;-74
2022/11/08 02:23:33;;;;;;;119.50;92.70;;;;;;;1.93;100.00;99224.85;106337;1285;58832;-74
2022/11/08 02:26:00;;;;;;;121.70;91.00;;;;;;;1.91;100.00;99224.40;106374;1285;58953;-74
2022/11/08 02:28:27;;;;;;;117.30;90.50;;;;;;;1.89;100.00;99221.64;106339;1285;64922;-74
2022/11/08 02:30:53;;;;;;;121.00;93.90;;;;;;;1.86;100.00;99218.90;106368;1279;58819;-74
2022/11/08 02:33:21;;;;;;;123.20;95.50;;;;;;;1.85;100.00;99221.40;106347;1279;58928;-73
2022/11/08 02:35:53;;;;;;;122.90;94.60;;;;;;;1.82;100.00;99218.85;106351;1278;58861;-73
2022/11/08 02:38:21;;;;;;;117.50;95.10;;;;;;;1.80;100.00;99223.80;106362;1278;58814;-73
2022/11/08 02:40:50;;;;;;;117.80;89.90;;;;;;;1.76;100.00;99223.39;106359;1285;67180;-73
2022/11/08 02:43:17;;;;;;;112.30;87.70;;;;;;;1.68;100.00;99226.42;106348;1277;59806;-74
2022/11/08 02:45:44;;;;;;;122.00;92.80;;;;;;;1.62;100.00;99226.95;106328;1285;65042;-73
2022/11/08 02:48:11;;;;;;;124.80;89.70;;;;;;;1.62;100.00;99227.27;106328;1285;58943;-74
2022/11/08 02:50:39;;;;;;;128.00;97.50;;;;;;;1.64;100.00;99227.58;106324;1278;60414;-73
2022/11/08 02:53:06;;;;;;;135.90;103.40;;;;;;;1.66;100.00;99228.23;106346;1285;74619;-72
2022/11/08 02:55:34;;;;;;;129.10;102.40;;;;;;;1.66;100.00;99223.67;106357;1285;60992;-73
2022/11/08 02:58:01;;;;;;;134.90;103.20;;;;;;;1.67;100.00;99224.52;106347;1285;62694;-74
2022/11/08 03:00:34;;;;;;;126.80;96.70;;;;;;;1.69;100.00;99217.27;106339;1278;58867;-73
2022/11/08 03:03:01;;;;;;;126.10;96.60;;;;;;;1.71;100.00;99216.70;106346;1279;59031;-74
2022/11/08 03:05:28;;;;;;;128.10;97.60;;;;;;;1.71;100.00;99216.52;106345;1285;67044;-74
2022/11/08 03:07:56;;;;;;;118.10;88.20;;;;;;;1.70;100.00;99215.85;106355;1284;61291;-73
2022/11/08 03:10:24;;;;;;;113.20;92.00;;;;;;;1.69;100.00;99216.06;106328;1285;65133;-73
2022/11/08 03:12:59;;;;;;;121.00;91.50;;;;;;;1.67;100.00;99217.33;106355;1286;58968;-73
2022/11/08 03:15:26;;;;;;;121.20;92.40;;;;;;;1.66;100.00;99214.05;106363;1286;58790;-74
2022/11/08 03:17:55;;;;;;;115.30;91.50;;;;;;;1.64;100.00;99210.23;106362;1285;67031;-73
2022/11/08 03:20:22;;;;;;;122.70;93.60;;;;;;;1.64;100.00;99213.40;106366;1285;61228;-72
2022/11/08 03:22:57;;;;;;;122.60;93.70;;;;;;;1.63;100.00;99213.58;106342;1292;65038;-72
2022/11/08 03:25:24;;;;;;;123.30;92.90;;;;;;;1.64;100.00;99215.15;106339;1286;58862;-72
2022/11/08 03:27:51;;;;;;;111.00;89.00;;;;;;;1.63;100.00;99216.02;106355;1286;58727;-73
2022/11/08 03:30:17;;;;;;;112.40;86.40;;;;;;;1.62;100.00;99217.11;106345;1285;65118;-73
2022/11/08 03:32:45;;;;;;;106.70;85.60;;;;;;;1.62;100.00;99222.02;106342;1278;67611;-72
2022/11/08 03:35:13;;;;;;;107.10;84.50;;;;;;;1.62;100.00;99220.78;106372;1285;63689;-72
2022/11/08 03:37:39;;;;;;;111.20;84.30;;;;;;;1.63;100.00;99220.40;106360;1292;58851;-72
2022/11/08 03:40:07;;;;;;;110.50;88.30;;;;;;;1.64;100.00;99220.91;106357;1285;58859;-73
2022/11/08 03:42:33;;;;;;;109.10;84.70;;;;;;;1.65;100.00;99223.70;106344;1278;65977;-72
2022/11/08 03:45:00;;;;;;;110.30;84.50;;;;;;;1.64;100.00;99225.30;106379;1285;68891;-73
2022/11/08 03:47:26;;;;;;;114.00;89.00;;;;;;;1.63;100.00;99224.29;106328;1278;58981;-73
2022/11/08 03:49:53;;;;;;;104.90;84.90;;;;;;;1.61;100.00;99225.91;106343;1285;58983;-72
2022/11/08 03:52:19;;;;;;;110.80;85.00;;;;;;;1.60;100.00;99226.99;106349;1284;58903;-74
2022/11/08 03:54:46;;;;;;;103.20;84.00;;;;;;;1.59;100.00;99226.32;106355;1284;67163;-73
2022/11/08 03:57:12;;;;;;;108.40;84.70;;;;;;;1.58;100.00;99224.59;106379;1285;59382;-73
2022/11/08 03:59:39;;;;;;;112.60;86.10;;;;;;;1.57;100.00;99226.53;106347;1285;62574;-73
2022/11/08 04:02:05;;;;;;;107.40;82.80;;;;;;;1.55;100.00;99228.52;106349;1279;58931;-73
2022/11/08 04:04:32;;;;;;;114.90;85.60;;;;;;;1.53;100.00;99227.16;106358;1285;58863;-74
2022/11/08 04:06:58;;;;;;;102.40;82.90;;;;;;;1.52;100.00;99226.31;106338;1284;58764;-74
2022/11/08 04:09:24;;;;;;;108.30;84.00;;;;;;;1.50;100.00;99228.29;106360;1278;59192;-74
2022/11/08 04:21:17;;;;;;;105.90;80.90;;;;;;;1.42;100.00;99219.41;106342;1276;58840;-74
2022/11/08 04:22:55;;;;;;;110.20;83.00;;;;;;;1.35;100.00;99215.91;106260;1284;153316;-73
2022/11/08 04:25:21;;;;;;;103.50;81.70;;;;;;;1.32;100.00;99217.55;106320;1275;64143;-73
2022/11/08 04:27:48;;;;;;;102.50;82.70;;;;;;;1.32;100.00;99218.79;106349;1286;58808;-73
2022/11/08 04:30:14;;;;;;;107.30;84.70;;;;;;;1.32;100.00;99217.20;106354;1286;58863;-73
2022/11/08 04:32:41;;;;;;;109.90;84.70;;;;;;;1.31;100.00;99213.39;106360;1286;67155;-74
2022/11/08 04:35:07;;;;;;;110.60;85.10;;;;;;;1.28;100.00;99211.71;106369;1285;58961;-73
2022/11/08 04:37:34;;;;;;;115.70;84.60;;;;;;;1.26;100.00;99210.54;106332;1286;71033;-73
2022/11/08 04:40:00;;;;;;;108.00;87.10;;;;;;;1.24;100.00;99209.36;106337;1276;59117;-73
2022/11/08 04:42:27;;;;;;;113.70;88.50;;;;;;;1.24;100.00;99208.33;106056;1291;58920;-73
2022/11/08 04:44:53;;;;;;;115.80;86.40;;;;;;;1.24;100.00;99205.70;106370;1285;59232;-73
2022/11/08 04:47:20;;;;;;;116.70;90.50;;;;;;;1.26;100.00;99202.85;106071;1284;58939;-74
2022/11/08 04:49:46;;;;;;;112.70;87.10;;;;;;;1.27;100.00;99205.61;106325;1286;59121;-73
2022/11/08 04:52:15;;;;;;;113.00;88.20;;;;;;;1.29;100.00;99205.73;106347;1285;58831;-73
2022/11/08 04:54:43;;;;;;;111.40;85.40;;;;;;;1.30;100.00;99201.69;106231;1284;59002;-73
2022/11/08 04:57:10;;;;;;;107.40;82.80;;;;;;;1.31;100.00;99201.83;106359;1285;75691;-74
2022/11/08 04:59:38;;;;;;;109.20;84.60;;;;;;;1.32;100.00;99200.59;106262;1279;60782;-74
2022/11/08 05:02:05;;;;;;;107.60;81.30;;;;;;;1.33;100.00;99202.48;106361;1286;64845;-74
2022/11/08 05:04:31;;;;;;;105.70;81.10;;;;;;;1.34;100.00;99206.85;106352;1285;58855;-74
2022/11/08 05:06:58;;;;;;;102.20;79.70;;;;;;;1.34;100.00;99201.41;106359;1285;58771;-73
2022/11/08 05:09:24;;;;;;;96.40;76.20;;;;;;;1.34;100.00;99201.92;106362;1284;66101;-74
2022/11/08 05:11:51;;;;;;;107.50;76.30;;;;;;;1.37;100.00;99202.04;106342;1286;61311;-73
2022/11/08 05:14:18;;;;;;;106.70;78.80;;;;;;;1.41;100.00;99201.04;106356;1284;59037;-74
2022/11/08 05:16:45;;;;;;;105.80;84.10;;;;;;;1.43;100.00;99198.03;106050;1287;58962;-73
2022/11/08 05:19:11;;;;;;;98.40;80.90;;;;;;;1.42;100.00;99197.00;106356;1293;58729;-74
2022/11/08 05:24:23;;;;;;;93.10;71.90;;;;;;;1.43;100.00;99198.54;106382;1285;61247;-73
2022/11/08 05:26:49;;;;;;;101.70;77.70;;;;;;;1.46;100.00;99197.77;106347;1284;59065;-73
2022/11/08 05:29:16;;;;;;;98.10;75.10;;;;;;;1.49;100.00;99200.48;106024;1287;59351;-74
2022/11/08 05:31:43;;;;;;;95.80;75.10;;;;;;;1.50;100.00;99206.58;106352;1286;58797;-73
2022/11/08 05:34:09;;;;;;;84.40;67.90;;;;;;;1.50;100.00;99204.66;106347;1278;67415;-73
2022/11/08 05:36:36;;;;;;;88.10;68.90;;;;;;;1.51;100.00;99203.24;106353;1277;61212;-73
2022/11/08 05:39:03;;;;;;;86.80;68.50;;;;;;;1.53;100.00;99206.34;106355;1285;64190;-74
2022/11/08 05:41:29;;;;;;;84.00;65.60;;;;;;;1.56;100.00;99209.05;106335;1278;59059;-73
2022/11/08 05:43:56;;;;;;;84.40;63.10;;;;;;;1.59;100.00;99209.16;106363;1285;58776;-73
2022/11/08 05:46:23;;;;;;;92.80;70.40;;;;;;;1.62;100.00;99215.36;106345;1286;73751;-74
2022/11/08 05:48:50;;;;;;;79.50;62.20;;;;;;;1.65;100.00;99216.34;106363;1275;67638;-74
2022/11/08 05:51:18;;;;;;;86.90;65.00;;;;;;;1.68;100.00;99212.40;106356;1278;63981;-74
2022/11/08 05:53:46;;;;;;;85.10;67.10;;;;;;;1.72;100.00;99210.38;106339;1286;58931;-73
2022/11/08 05:56:12;;;;;;;92.80;70.40;;;;;;;1.74;100.00;99211.52;106361;1285;58855;-73
2022/11/08 05:58:39;;;;;;;93.20;71.20;;;;;;;1.77;100.00;99218.48;106344;1278;64759;-73
2022/11/08 06:01:11;;;;;;;88.60;70.50;;;;;;;1.77;100.00;99220.56;106358;1284;61232;-74
2022/11/08 06:03:38;;;;;;;88.90;70.40;;;;;;;1.80;100.00;99222.23;106353;1284;63986;-73
2022/11/08 06:06:08;;;;;;;82.10;65.50;;;;;;;1.84;100.00;99221.95;106342;1286;58911;-73
2022/11/08 06:08:35;;;;;;;85.60;64.10;;;;;;;1.88;100.00;99223.59;106353;1285;58831;-73
2022/11/08 06:11:07;;;;;;;81.20;63.30;;;;;;;1.91;100.00;99222.61;106330;1286;67150;-73
2022/11/08 06:13:34;;;;;;;74.30;60.00;;;;;;;1.95;100.00;99223.20;106386;1284;61018;-74
2022/11/08 06:16:02;;;;;;;98.50;76.20;;;;;;;2.00;100.00;99223.77;106350;1285;64032;-74
2022/11/08 06:18:30;;;;;;;87.70;69.30;;;;;;;2.05;100.00;99224.16;106033;1289;58996;-73
2022/11/08 06:20:58;;;;;;;85.30;69.80;;;;;;;2.09;100.00;99224.55;106346;1284;58906;-73
2022/11/08 06:23:25;;;;;;;84.80;68.30;;;;;;;2.14;100.00;99225.63;106341;1284;67055;-73
2022/11/08 06:25:52;;;;;;;88.40;69.50;;;;;;;2.20;100.00;99229.31;106371;1286;61131;-73
2022/11/08 06:28:18;;;;;;;83.90;68.50;;;;;;;2.27;100.00;99229.81;105614;1285;1002350;-72
2022/11/08 06:30:45;;;;;;;84.20;67.10;;;;;;;2.35;100.00;99232.23;106323;1286;58802;-73
2022/11/08 06:33:12;;;;;;;84.20;67.40;;;;;;;2.40;100.00;99231.18;106364;1286;58961;-73
2022/11/08 06:35:38;;;;;;;80.90;65.50;;;;;;;2.47;100.00;99234.66;106353;1286;67030;-72
2022/11/08 06:38:05;;;;;;;78.10;65.20;;;;;;;2.56;100.00;99234.94;106325;1285;69884;-73
2022/11/08 06:40:32;;;;;;;81.40;65.80;;;;;;;2.65;100.00;99232.70;106349;1286;73806;-73
2022/11/08 06:42:59;;;;;;;79.20;63.00;;;;;;;2.74;100.00;99232.27;106354;1285;58868;-73
2022/11/08 06:45:26;;;;;;;84.50;68.50;;;;;;;2.84;100.00;99230.35;106370;1278;58754;-73
2022/11/08 06:47:57;;;;;;;79.80;65.60;;;;;;;2.95;100.00;99230.17;106228;1281;74864;-73
2022/11/08 06:50:24;;;;;;;81.30;69.80;;;;;;;3.05;100.00;99233.19;106368;1279;60256;-74
2022/11/08 06:53:07;;;;;;;83.10;68.40;;;;;;;3.16;100.00;99234.60;106344;1285;65246;-73
2022/11/08 06:55:34;;;;;;;80.70;68.60;;;;;;;3.27;100.00;99230.02;106337;1285;58854;-74
2022/11/08 06:58:01;;;;;;;84.30;69.70;;;;;;;3.38;100.00;99225.62;106342;1292;60255;-74
2022/11/08 07:00:29;;;;;;;89.20;72.00;;;;;;;3.48;100.00;99222.46;106089;1289;65993;-74
2022/11/08 07:03:00;;;;;;;88.10;74.70;;;;;;;3.57;100.00;99222.14;106345;1285;59825;-74
2022/11/08 07:05:28;;;;;;;103.10;80.80;;;;;;;3.68;100.00;99220.36;106344;1285;71758;-74
2022/11/08 07:07:59;;;;;;;129.70;100.60;;;;;;;3.78;100.00;99220.02;106325;1284;59865;-73
2022/11/08 07:10:28;;;;;;;94.40;81.40;;;;;;;3.87;100.00;99218.96;106257;1288;59208;-73
2022/11/08 07:13:02;;;;;;;85.70;71.40;;;;;;;3.98;100.00;99223.66;106119;1288;65472;-73
2022/11/08 07:15:31;;;;;;;77.20;65.80;;;;;;;4.08;100.00;99224.72;106318;1285;61493;-73
2022/11/08 07:18:13;;;;;;;76.20;63.00;;;;;;;4.18;100.00;99224.88;106325;1286;65170;-73
2022/11/08 07:20:40;;;;;;;82.90;62.10;;;;;;;4.29;100.00;99224.48;106324;1284;58953;-74
2022/11/08 07:23:08;;;;;;;73.30;58.00;;;;;;;4.39;100.00;99218.11;106320;1286;58888;-74
2022/11/08 07:25:36;;;;;;;70.40;59.60;;;;;;;4.51;100.00;99222.41;106341;1284;74501;-73
2022/11/08 07:28:05;;;;;;;71.80;58.20;;;;;;;4.61;100.00;99220.93;106344;1286;69759;-72
2022/11/08 07:30:34;;;;;;;64.10;55.40;;;;;;;4.72;100.00;99222.63;106101;1282;65256;-73
2022/11/08 07:33:01;;;;;;;66.60;56.10;;;;;;;4.83;100.00;99219.40;106338;1287;58940;-72
2022/11/08 07:35:27;;;;;;;69.00;57.80;;;;;;;4.93;100.00;99218.46;106369;1285;58716;-73
2022/11/08 07:37:55;;;;;;;68.10;57.60;;;;;;;5.02;100.00;99216.69;106358;1285;65873;-72
2022/11/08 07:40:22;;;;;;;69.00;57.70;;;;;;;5.11;100.00;99220.54;106352;1291;60052;-74
2022/11/08 07:42:49;;;;;;;73.90;57.50;;;;;;;5.21;100.00;99220.84;106329;1285;65543;-75
2022/11/08 07:45:15;;;;;;;74.80;61.80;;;;;;;5.31;100.00;99223.08;106351;1292;58965;-74
2022/11/08 07:47:42;;;;;;;81.80;68.90;;;;;;;5.42;100.00;99221.72;106059;1292;59018;-74
2022/11/08 07:50:09;;;;;;;70.20;59.30;;;;;;;5.52;100.00;99225.17;106354;1286;67152;-73
2022/11/08 07:52:36;;;;;;;61.30;52.70;;;;;;;5.62;100.00;99224.73;106353;1285;61563;-74
2022/11/08 07:55:02;;;;;;;63.40;51.80;;;;;;;5.71;100.00;99227.69;106034;1292;64037;-74
2022/11/08 07:57:29;;;;;;;62.80;53.40;;;;;;;5.82;100.00;99227.21;106322;1285;59054;-73
2022/11/08 07:59:55;;;;;;;56.80;49.70;;;;;;;5.93;100.00;99221.80;106334;1286;61599;-73
2022/11/08 08:02:22;;;;;;;59.10;52.00;;;;;;;6.04;100.00;99223.29;106348;1284;67243;-73
2022/11/08 08:04:49;;;;;;;52.10;46.30;;;;;;;6.17;100.00;99220.77;106336;1285;69990;-73
2022/11/08 08:07:15;;;;;;;49.70;44.30;;;;;;;6.27;100.00;99221.36;106341;1291;64259;-73
2022/11/08 08:09:42;;;;;;;52.40;45.70;;;;;;;6.37;100.00;99220.89;106334;1285;59995;-72
2022/11/08 08:12:08;;;;;;;52.60;45.60;;;;;;;6.49;100.00;99221.08;106350;1285;58747;-73
2022/11/08 08:14:36;;;;;;;50.60;45.20;;;;;;;6.60;100.00;99218.95;106379;1284;64680;-74
2022/11/08 08:17:03;;;;;;;44.90;40.10;;;;;;;6.72;100.00;99216.45;106357;1284;69715;-73
2022/11/08 08:19:30;;;;;;;49.30;42.50;;;;;;;6.82;100.00;99215.09;106349;1290;65152;-73
2022/11/08 08:21:57;;;;;;;45.90;41.00;;;;;;;6.92;100.00;99215.83;106343;1284;58949;-72
2022/11/08 08:24:25;;;;;;;45.60;40.70;;;;;;;7.02;100.00;99210.38;106355;1284;61248;-73
2022/11/08 08:26:52;;;;;;;44.60;39.90;;;;;;;7.13;100.00;99214.13;106345;1290;67215;-73
2022/11/08 08:29:18;;;;;;;43.10;38.70;;;;;;;7.24;100.00;99215.86;106061;1294;68152;-73
2022/11/08 08:31:45;;;;;;;44.50;38.70;;;;;;;7.34;100.00;99212.88;106111;1289;64050;-73
2022/11/08 08:34:11;;;;;;;41.70;37.30;;;;;;;7.46;100.00;99216.52;106344;1285;58921;-72
2022/11/08 08:36:38;;;;;;;41.20;36.90;;;;;;;7.55;100.00;99215.52;106111;1287;58976;-73
2022/11/08 08:39:04;;;;;;;41.50;36.90;;;;;;;7.65;100.00;99212.18;106338;1286;74858;-73
2022/11/08 08:41:31;;;;;;;40.40;36.20;;;;;;;7.76;100.00;99213.95;106351;1285;59127;-73
2022/11/08 08:43:57;;;;;;;41.70;35.40;;;;;;;7.87;100.00;99214.96;106357;1285;62406;-74
2022/11/08 08:46:24;;;;;;;36.10;32.10;;;;;;;7.98;100.00;99209.58;106347;1285;59978;-73
2022/11/08 08:48:50;;;;;;;36.00;31.90;;;;;;;8.08;100.00;99209.23;106354;1284;58901;-72
2022/11/08 08:51:17;;;;;;;33.60;30.00;;;;;;;8.19;100.00;99210.44;106360;1278;66094;-73
2022/11/08 08:53:43;;;;;;;32.20;28.80;;;;;;;8.29;100.00;99211.10;106356;1284;59140;-73
2022/11/08 08:56:10;;;;;;;32.00;28.50;;;;;;;8.41;100.00;99210.46;106320;1292;65707;-73
2022/11/08 08:58:37;;;;;;;31.00;27.70;;;;;;;8.53;100.00;99208.09;106344;1285;58885;-73
2022/11/08 09:01:07;;;;;;;34.10;29.80;;;;;;;8.64;100.00;99209.22;106348;1286;61488;-73
2022/11/08 09:03:35;;;;;;;38.30;33.40;;;;;;;8.75;100.00;99212.14;106350;1284;74329;-73
2022/11/08 09:06:01;;;;;;;44.20;37.70;;;;;;;8.87;100.00;99214.35;106355;1282;68690;-74
2022/11/08 09:08:28;;;;;;;43.10;38.50;;;;;;;8.96;100.00;99212.91;106335;1284;72623;-74
2022/11/08 09:10:57;;;;;;;49.70;42.10;;;;;;;9.06;100.00;99216.42;106334;1285;58864;-74
2022/11/08 09:13:25;;;;;;;47.60;42.40;;;;;;;9.16;100.00;99215.52;106240;1289;58891;-74
2022/11/08 09:15:53;;;;;;;50.70;42.60;;;;;;;9.25;100.00;99215.50;106046;1290;73670;-73
2022/11/08 09:18:20;;;;;;;49.30;41.40;;;;;;;9.34;100.00;99220.70;106033;1281;69526;-74
2022/11/08 09:20:47;;;;;;;48.50;41.60;;;;;;;9.43;100.00;99218.56;106362;1284;65228;-73
2022/11/08 09:23:18;;;;;;;47.30;41.60;;;;;;;9.52;100.00;99215.91;106347;1284;59212;-74
2022/11/08 09:25:44;;;;;;;48.10;42.90;;;;;;;9.59;100.00;99220.25;106353;1277;58989;-74
2022/11/08 09:28:11;;;;;;;52.60;47.00;;;;;;;9.70;100.00;99224.06;106358;1285;67204;-74
2022/11/08 09:30:37;;;;;;;53.90;48.10;;;;;;;9.81;100.00;99221.10;106137;1284;58944;-73
2022/11/08 09:33:04;;;;;;;57.40;50.10;;;;;;;9.91;100.00;99223.70;106341;1288;58966;-73
2022/11/08 09:35:30;;;;;;;52.40;46.20;;;;;;;10.00;100.00;99226.17;106356;1293;58887;-73
2022/11/08 09:37:57;;;;;;;55.60;49.00;;;;;;;10.07;100.00;99225.70;106296;1284;58943;-76
2022/11/08 09:40:50;;;;;;;54.20;48.40;;;;;;;10.16;100.00;99216.46;106346;1285;67091;-74
2022/11/08 09:43:23;;;;;;;50.50;45.10;;;;;;;10.26;100.00;99215.14;106347;1285;60170;-73
2022/11/08 09:45:51;;;;;;;48.70;42.30;;;;;;;10.35;100.00;99212.98;106334;1292;65259;-73
2022/11/08 09:48:27;;;;;;;51.60;43.70;;;;;;;10.46;100.00;99210.40;106363;1292;58874;-73
2022/11/08 09:50:58;;;;;;;49.60;42.80;;;;;;;10.54;100.00;99205.97;106369;1285;58828;-73
2022/11/08 09:53:48;;;;;;;48.50;42.30;;;;;;;10.62;100.00;99204.40;106079;1289;64750;-73
2022/11/08 09:56:22;;;;;;;41.20;36.70;;;;;;;10.73;100.00;99196.77;106360;1285;59979;-73
2022/11/08 09:58:54;;;;;;;39.60;35.10;;;;;;;10.83;100.00;99195.58;106353;1286;62713;-73
2022/11/08 10:01:22;;;;;;;39.90;34.10;;;;;;;10.95;100.00;99188.77;106337;1286;59601;-73
2022/11/08 10:03:53;;;;;;;44.60;34.40;;;;;;;11.06;100.00;99185.74;106356;1285;58679;-73
2022/11/08 10:06:54;;;;;;;39.80;33.90;;;;;;;11.16;100.00;99185.42;106336;1284;66409;-74
2022/11/08 10:10:07;;;;;;;35.20;31.00;;;;;;;11.27;100.00;99179.89;105764;1290;59098;-72
2022/11/08 10:12:44;;;;;;;37.50;31.80;;;;;;;11.41;100.00;99175.54;105776;1287;64031;-73
2022/11/08 10:15:24;;;;;;;38.60;29.50;;;;;;;11.51;100.00;99171.31;105783;1292;59571;-73
2022/11/08 10:17:53;;;;;;;29.80;26.60;;;;;;;11.62;100.00;99173.21;105793;1292;59100;-74
2022/11/08 10:20:35;;;;;;;30.30;25.90;;;;;;;11.75;100.00;99169.52;105794;1292;67323;-73
2022/11/08 10:23:26;;;;;;;29.90;26.20;;;;;;;11.87;100.00;99166.02;105780;1290;59909;-73
2022/11/08 10:26:04;;;;;;;32.80;27.90;;;;;;;11.99;100.00;99161.98;105752;1290;65317;-73
2022/11/08 10:28:39;;;;;;;28.70;25.30;;;;;;;12.10;100.00;99158.23;105763;1300;58919;-74
2022/11/08 10:31:06;;;;;;;24.00;21.50;;;;;;;12.21;100.00;99158.52;105751;1292;60286;-73
2022/11/08 10:33:44;;;;;;;22.80;18.70;;;;;;;12.32;100.00;99151.48;105766;1290;74609;-73
2022/11/08 10:36:19;;;;;;;22.00;19.60;;;;;;;12.42;100.00;99148.28;105748;1290;61203;-74
2022/11/08 10:38:53;;;;;;;24.70;20.60;;;;;;;12.53;100.00;99143.53;105752;1297;64111;-74
2022/11/08 10:41:30;;;;;;;23.90;20.10;;;;;;;12.64;100.00;99140.95;105752;1291;59278;-74
2022/11/08 10:44:10;;;;;;;20.80;18.70;;;;;;;12.74;100.00;99136.65;105795;1291;58985;-74
2022/11/08 10:46:45;;;;;;;21.70;19.30;;;;;;;12.84;100.00;99135.90;106044;1282;67336;-74
2022/11/08 10:49:41;;;;;;;21.20;19.10;;;;;;;12.94;100.00;99133.23;106122;1289;67600;-73
2022/11/08 10:52:10;;;;;;;20.20;17.20;;;;;;;13.03;100.00;99126.86;106349;1285;65263;-73
2022/11/08 10:54:46;;;;;;;16.90;15.20;;;;;;;13.09;100.00;99122.80;106335;1286;59103;-73
2022/11/08 10:57:25;;;;;;;18.10;16.00;;;;;;;13.15;100.00;99122.38;106340;1285;59217;-73
2022/11/08 10:59:52;;;;;;;20.40;16.10;;;;;;;13.22;100.00;99115.23;106339;1284;67014;-73
2022/11/08 11:02:31;;;;;;;18.00;16.00;;;;;;;13.30;100.00;99115.94;106328;1285;69749;-73
2022/11/08 11:05:17;;;;;;;19.00;15.60;;;;;;;13.39;100.00;99112.75;106242;1288;65252;-73
2022/11/08 11:07:55;;;;;;;15.40;13.60;;;;;;;13.50;100.00;99106.36;106331;1285;58961;-73
2022/11/08 11:10:26;;;;;;;16.80;14.00;;;;;;;13.57;100.00;99108.13;106362;1286;58832;-73
2022/11/08 11:13:03;;;;;;;19.40;15.20;;;;;;;13.66;100.00;99105.32;106337;1282;74274;-73
2022/11/08 11:15:35;;;;;;;19.40;14.60;;;;;;;13.74;100.00;99104.30;106353;1285;67508;-72
2022/11/08 11:18:04;;;;;;;17.40;15.20;;;;;;;13.82;100.00;99106.86;106349;1286;73848;-74
2022/11/08 11:20:32;;;;;;;16.60;14.80;;;;;;;13.89;100.00;99102.79;106358;1285;59076;-75
2022/11/08 11:22:59;;;;;;;15.90;13.80;;;;;;;13.96;100.00;99099.23;106341;1285;60116;-73
2022/11/08 11:25:26;;;;;;;16.60;14.60;;;;;;;14.02;100.00;99098.00;106336;1286;73750;-73
2022/11/08 11:27:56;;;;;;;16.30;14.50;;;;;;;14.05;100.00;99096.14;106347;1285;60305;-75
2022/11/08 11:30:32;;;;;;;17.80;13.10;;;;;;;14.08;100.00;99093.40;106338;1284;64149;-73
2022/11/08 11:33:22;;;;;;;14.60;13.00;;;;;;;14.14;100.00;99092.62;106236;1288;58825;-74